Time;durP1;ratioP1;P1;durP2;ratioP2;P2;SDS_P1;SDS_P2;PMS_P1;PMS_P2;Temp;Humidity;BMP_temperature;BMP_pressure;BME280_temperature;BME280_humidity;BME280_pressure;Samples;Min_cycle;Max_cycle;Signal;HPM_P1;HPM_P2
2022/08/08 00:00:19;;;;;;;12.15;10.02;;;19.90;99.90;;;;;;4915506;29;20048;-60
2022/08/08 00:03:00;;;;;;;14.23;11.20;;;20.00;99.90;;;;;;4915261;29;20024;-60
2022/08/08 00:06:01;;;;;;;15.45;11.00;;;19.90;99.90;;;;;;4953921;28;20042;-60
2022/08/08 00:09:09;;;;;;;14.45;11.05;;;19.80;99.90;;;;;;4994743;28;20034;-60
2022/08/08 00:11:41;;;;;;;12.32;10.98;;;19.70;99.90;;;;;;4976129;28;20041;-60
2022/08/08 00:14:56;;;;;;;12.95;10.63;;;19.70;99.90;;;;;;4978880;28;20057;-60
2022/08/08 00:17:41;;;;;;;13.07;11.43;;;19.70;99.90;;;;;;4966111;28;20400;-60
2022/08/08 00:20:10;;;;;;;14.70;11.45;;;19.70;99.90;;;;;;4978983;28;20045;-60
2022/08/08 00:22:47;;;;;;;15.63;11.82;;;19.70;99.90;;;;;;4978839;28;20045;-60
2022/08/08 00:25:27;;;;;;;14.65;12.10;;;19.60;99.90;;;;;;4978981;28;20026;-60
2022/08/08 00:27:56;;;;;;;15.52;11.80;;;19.60;99.90;;;;;;4978731;28;20027;-60
2022/08/08 00:30:25;;;;;;;15.52;12.15;;;19.70;99.90;;;;;;4978749;28;20027;-60
2022/08/08 00:33:03;;;;;;;13.85;11.13;;;19.60;99.90;;;;;;4978600;28;20477;-60
2022/08/08 00:35:59;;;;;;;16.52;11.30;;;19.60;99.90;;;;;;4978970;28;20106;-60
2022/08/08 00:38:38;;;;;;;14.32;10.85;;;19.50;99.90;;;;;;4978558;28;20117;-60
2022/08/08 00:41:32;;;;;;;14.15;11.43;;;19.40;99.90;;;;;;4978390;28;20057;-60
2022/08/08 00:44:40;;;;;;;15.45;11.05;;;19.40;99.90;;;;;;4978504;28;20031;-60
2022/08/08 00:47:21;;;;;;;14.68;11.32;;;19.40;99.90;;;;;;4958708;28;20070;-60
2022/08/08 00:50:06;;;;;;;15.68;11.55;;;19.40;99.90;;;;;;4977163;28;20031;-60
2022/08/08 00:52:57;;;;;;;14.20;12.07;;;19.40;99.90;;;;;;4978343;28;20023;-60
2022/08/08 00:55:45;;;;;;;13.95;11.60;;;19.50;99.90;;;;;;4960922;28;20038;-60
2022/08/08 00:58:24;;;;;;;16.60;11.98;;;19.40;99.90;;;;;;4962728;28;20035;-60
2022/08/08 01:00:51;;;;;;;;;;;19.30;99.90;;;;;;4980426;28;20046;-60
2022/08/08 01:03:56;;;;;;;16.00;11.68;;;19.30;99.90;;;;;;4996145;28;19910;-60
2022/08/08 01:06:32;;;;;;;16.45;12.48;;;19.30;99.90;;;;;;4980137;28;20041;-60
2022/08/08 01:09:04;;;;;;;14.85;12.30;;;19.30;99.90;;;;;;4979970;28;20034;-60
2022/08/08 01:11:57;;;;;;;16.98;11.80;;;19.20;99.90;;;;;;4975383;28;20073;-60
2022/08/08 01:14:52;;;;;;;14.88;12.45;;;19.20;99.90;;;;;;4960451;28;20034;-60
2022/08/08 01:17:18;;;;;;;18.95;13.40;;;19.20;99.90;;;;;;4960569;28;20034;-60
2022/08/08 01:19:55;;;;;;;16.23;12.65;;;19.20;99.90;;;;;;4960348;28;20053;-60
2022/08/08 01:22:45;;;;;;;16.45;12.93;;;19.30;99.90;;;;;;4959270;28;20041;-60
2022/08/08 01:25:21;;;;;;;14.27;11.90;;;19.20;99.90;;;;;;4960599;28;20543;-60
2022/08/08 01:27:56;;;;;;;15.70;11.85;;;19.10;99.90;;;;;;4960404;28;20090;-60
2022/08/08 01:31:00;;;;;;;15.05;11.93;;;19.10;99.90;;;;;;4960155;28;20042;-60
2022/08/08 01:33:47;;;;;;;14.15;11.10;;;19.30;99.90;;;;;;4977982;28;20117;-60
2022/08/08 01:36:17;;;;;;;14.50;11.27;;;19.20;99.90;;;;;;4977426;28;20049;-60
2022/08/08 01:38:59;;;;;;;15.05;10.50;;;19.10;99.90;;;;;;4960354;28;20059;-60
2022/08/08 01:41:29;;;;;;;14.93;10.57;;;19.00;99.90;;;;;;4959954;28;20042;-60
2022/08/08 01:44:29;;;;;;;14.70;11.02;;;19.00;99.90;;;;;;4977343;28;20083;-60
2022/08/08 01:47:12;;;;;;;16.38;10.27;;;19.00;99.90;;;;;;4960106;28;20035;-60
2022/08/08 01:49:45;;;;;;;15.05;10.18;;;18.90;99.90;;;;;;4976186;28;20484;-60
2022/08/08 01:52:26;;;;;;;15.88;11.07;;;18.90;99.90;;;;;;4960250;28;20407;-60
2022/08/08 01:55:05;;;;;;;14.73;10.70;;;18.80;99.90;;;;;;4959798;28;20462;-60
2022/08/08 01:57:50;;;;;;;15.95;11.02;;;18.80;99.90;;;;;;4959834;28;20053;-60
2022/08/08 02:00:26;;;;;;;16.10;12.05;;;18.80;99.90;;;;;;4978503;28;20044;-60
2022/08/08 02:03:20;;;;;;;14.48;11.32;;;18.80;99.90;;;;;;4979124;28;20030;-60
2022/08/08 02:05:52;;;;;;;15.75;11.65;;;18.80;99.90;;;;;;4995097;28;20038;-60
2022/08/08 02:08:45;;;;;;;14.70;11.00;;;18.70;99.90;;;;;;4978958;28;20436;-60
2022/08/08 02:11:46;;;;;;;15.68;11.35;;;18.70;99.90;;;;;;4961849;28;20034;-60
2022/08/08 02:14:40;;;;;;;14.68;11.45;;;18.70;99.90;;;;;;4938799;28;20050;-60
2022/08/08 02:17:37;;;;;;;15.77;12.10;;;18.70;99.90;;;;;;4959430;28;20115;-60
2022/08/08 02:20:12;;;;;;;15.50;11.88;;;18.70;99.90;;;;;;4959089;28;20041;-60
2022/08/08 02:23:09;;;;;;;16.30;12.68;;;18.60;99.90;;;;;;4976723;28;20027;-59
2022/08/08 02:25:49;;;;;;;16.25;11.55;;;18.60;99.90;;;;;;4959285;28;20035;-59
2022/08/08 02:28:57;;;;;;;16.55;13.13;;;18.60;99.90;;;;;;4959239;28;20081;-60
2022/08/08 02:31:59;;;;;;;16.83;13.45;;;18.60;99.90;;;;;;4959186;28;20039;-60
2022/08/08 02:34:58;;;;;;;19.15;14.68;;;18.50;99.90;;;;;;4958808;28;20070;-60
2022/08/08 02:37:48;;;;;;;17.75;13.13;;;18.50;99.90;;;;;;4925080;28;20477;-60
2022/08/08 02:40:33;;;;;;;16.37;12.13;;;18.50;99.90;;;;;;4958950;28;20035;-59
2022/08/08 02:43:37;;;;;;;14.23;12.07;;;18.40;99.90;;;;;;4976292;28;20681;-59
2022/08/08 02:46:18;;;;;;;15.85;12.80;;;18.50;99.90;;;;;;4959034;28;20346;-60
2022/08/08 02:48:47;;;;;;;18.02;12.13;;;18.50;99.90;;;;;;4959029;28;20203;-60
2022/08/08 02:51:22;;;;;;;17.55;12.10;;;18.50;99.90;;;;;;4958828;28;20039;-59
2022/08/08 02:54:10;;;;;;;16.67;12.05;;;18.50;99.90;;;;;;4958847;28;20157;-59
2022/08/08 02:57:02;;;;;;;17.73;12.98;;;18.30;99.90;;;;;;4976204;28;20023;-59
2022/08/08 02:59:47;;;;;;;17.25;12.05;;;18.30;99.90;;;;;;4978037;28;20046;-59
2022/08/08 03:02:19;;;;;;;17.77;12.55;;;18.30;99.90;;;;;;4995386;28;20555;-59
2022/08/08 03:04:55;;;;;;;15.00;12.18;;;18.30;99.90;;;;;;4977934;28;20057;-59
2022/08/08 03:07:23;;;;;;;13.43;11.40;;;18.30;99.90;;;;;;4978130;28;20073;-59
2022/08/08 03:10:24;;;;;;;15.60;11.60;;;18.30;99.90;;;;;;4971644;28;20042;-59
2022/08/08 03:13:09;;;;;;;15.80;11.30;;;18.30;99.90;;;;;;4958548;28;20039;-59
2022/08/08 03:15:50;;;;;;;14.48;11.50;;;18.40;99.90;;;;;;4975728;28;20062;-59
2022/08/08 03:18:27;;;;;;;14.75;12.05;;;18.30;99.90;;;;;;4958427;28;20035;-59
2022/08/08 03:20:53;;;;;;;14.20;11.00;;;18.40;99.90;;;;;;4974720;28;20424;-60
2022/08/08 03:23:23;;;;;;;19.88;12.45;;;18.40;99.90;;;;;;4958346;28;20080;-59
2022/08/08 03:25:50;;;;;;;16.52;12.52;;;18.30;99.90;;;;;;4974586;28;20034;-59
2022/08/08 03:28:31;;;;;;;17.33;12.55;;;18.30;99.90;;;;;;4958450;28;20515;-60
2022/08/08 03:30:57;;;;;;;15.60;12.15;;;18.30;99.90;;;;;;4958363;28;20041;-60
2022/08/08 03:33:24;;;;;;;15.73;12.13;;;18.30;99.90;;;;;;4958424;28;20455;-59
2022/08/08 03:35:56;;;;;;;13.88;11.20;;;18.30;99.90;;;;;;4958356;28;20031;-59
2022/08/08 03:38:22;;;;;;;16.88;12.02;;;18.30;99.90;;;;;;4974239;28;20041;-59
2022/08/08 03:40:53;;;;;;;16.70;12.48;;;18.30;99.90;;;;;;4974322;28;20129;-59
2022/08/08 03:43:21;;;;;;;;;;;18.30;99.90;;;;;;4974663;28;20035;-59
2022/08/08 03:45:55;;;;;;;15.98;12.20;;;18.30;99.90;;;;;;4976566;28;20564;-59
2022/08/08 03:48:21;;;;;;;20.42;12.35;;;18.30;99.90;;;;;;4962119;28;20041;-59
2022/08/08 03:50:48;;;;;;;17.77;12.77;;;18.30;99.90;;;;;;4962335;28;20055;-59
2022/08/08 03:53:19;;;;;;;17.20;11.75;;;18.30;99.90;;;;;;4978205;28;20030;-59
2022/08/08 03:55:49;;;;;;;14.65;11.48;;;18.30;99.90;;;;;;4979385;28;20073;-59
2022/08/08 03:58:23;;;;;;;13.35;11.55;;;18.40;99.90;;;;;;4980535;28;20117;-59
2022/08/08 04:01:10;;;;;;;15.63;11.05;;;18.40;99.90;;;;;;4981201;28;20061;-59
2022/08/08 04:03:36;;;;;;;16.60;11.77;;;18.40;99.90;;;;;;4998487;28;20601;-59
2022/08/08 04:06:05;;;;;;;17.02;11.60;;;18.30;99.90;;;;;;4981023;28;20038;-59
2022/08/08 04:08:35;;;;;;;18.13;11.88;;;18.30;99.90;;;;;;4981296;28;20030;-59
2022/08/08 04:11:06;;;;;;;16.40;11.73;;;18.30;99.90;;;;;;4981141;28;20496;-59
2022/08/08 04:13:32;;;;;;;14.57;12.00;;;18.30;99.90;;;;;;4977682;28;20037;-59
2022/08/08 04:16:01;;;;;;;20.42;11.73;;;18.30;99.90;;;;;;4977900;28;20181;-59
2022/08/08 04:18:27;;;;;;;14.75;12.00;;;18.40;99.90;;;;;;4977657;28;20022;-59
2022/08/08 04:20:53;;;;;;;16.88;12.63;;;18.40;99.90;;;;;;4977451;28;20130;-59
2022/08/08 04:23:19;;;;;;;15.77;12.48;;;18.40;99.90;;;;;;4961492;28;20026;-59
2022/08/08 04:25:46;;;;;;;19.05;12.15;;;18.40;99.90;;;;;;4977596;28;20125;-59
2022/08/08 04:28:12;;;;;;;21.15;13.38;;;18.40;99.90;;;;;;4978765;28;20106;-59
2022/08/08 04:30:38;;;;;;;22.58;13.02;;;18.50;99.90;;;;;;4977540;28;20051;-59
2022/08/08 04:33:04;;;;;;;19.00;12.20;;;18.60;99.90;;;;;;4978623;28;20034;-59
2022/08/08 04:35:32;;;;;;;18.20;12.00;;;18.70;99.90;;;;;;4961238;28;20114;-59
2022/08/08 04:37:59;;;;;;;16.83;11.10;;;18.70;99.90;;;;;;4977455;28;20038;-59
2022/08/08 04:40:30;;;;;;;14.25;10.63;;;18.70;99.90;;;;;;4961229;28;20030;-59
2022/08/08 04:42:57;;;;;;;28.55;12.18;;;18.70;99.90;;;;;;4977174;28;20054;-59
2022/08/08 04:45:26;;;;;;;20.60;11.30;;;18.80;99.90;;;;;;4977604;28;20027;-59
2022/08/08 04:47:57;;;;;;;19.23;12.93;;;18.90;99.90;;;;;;4960973;28;20030;-59
2022/08/08 04:50:24;;;;;;;18.40;11.50;;;19.10;99.90;;;;;;4977335;28;20055;-59
2022/08/08 04:52:51;;;;;;;22.13;12.10;;;19.10;99.90;;;;;;4961241;28;20042;-59
2022/08/08 04:55:17;;;;;;;17.50;12.15;;;19.20;99.90;;;;;;4978180;28;20041;-59
2022/08/08 04:57:45;;;;;;;25.33;13.18;;;19.20;99.90;;;;;;4960841;28;20056;-59
2022/08/08 05:00:12;;;;;;;28.02;14.20;;;19.20;99.90;;;;;;4979755;28;20512;-59
2022/08/08 05:02:38;;;;;;;25.85;14.15;;;19.40;99.90;;;;;;4979822;28;20551;-59
2022/08/08 05:05:04;;;;;;;23.45;14.88;;;19.40;99.90;;;;;;4980088;28;20404;-59
2022/08/08 05:07:33;;;;;;;23.95;16.30;;;19.50;99.90;;;;;;4980088;28;20385;-59
2022/08/08 05:09:59;;;;;;;26.60;16.05;;;19.60;99.90;;;;;;4972567;28;20023;-59
2022/08/08 05:12:26;;;;;;;24.88;15.93;;;19.70;99.90;;;;;;4976599;28;20118;-59
2022/08/08 05:14:52;;;;;;;22.15;14.15;;;19.90;99.90;;;;;;4977300;28;20555;-59
2022/08/08 05:17:18;;;;;;;20.45;13.43;;;20.00;99.90;;;;;;4958269;28;20034;-59
2022/08/08 05:19:44;;;;;;;27.98;16.00;;;20.10;99.90;;;;;;4970707;28;20062;-59
2022/08/08 05:22:11;;;;;;;24.77;16.38;;;20.20;99.90;;;;;;4958719;28;20034;-59
2022/08/08 05:24:41;;;;;;;;;;;20.20;99.90;;;;;;4956281;28;20023;-59
2022/08/08 05:27:08;;;;;;;27.83;15.65;;;20.40;99.90;;;;;;4958336;28;20344;-59
2022/08/08 05:29:37;;;;;;;23.38;17.20;;;20.40;99.90;;;;;;4960593;28;20469;-59
2022/08/08 05:32:07;;;;;;;21.85;16.15;;;20.50;99.90;;;;;;4975688;28;20443;-59
2022/08/08 05:34:46;;;;;;;26.70;15.82;;;20.70;99.90;;;;;;4959182;28;20038;-59
2022/08/08 05:37:17;;;;;;;23.50;16.20;;;20.80;99.90;;;;;;4975060;28;20473;-59
2022/08/08 05:39:50;;;;;;;21.30;14.25;;;20.80;99.90;;;;;;4956751;28;20038;-59
2022/08/08 05:42:17;;;;;;;20.15;13.82;;;20.90;99.90;;;;;;4959193;28;20031;-59
2022/08/08 05:44:46;;;;;;;25.35;14.63;;;21.00;99.90;;;;;;4974678;28;20019;-59
2022/08/08 05:47:15;;;;;;;21.92;14.25;;;21.20;99.90;;;;;;4958480;28;20509;-59
2022/08/08 05:49:47;;;;;;;26.20;15.52;;;21.20;99.90;;;;;;4959128;28;20031;-59
2022/08/08 05:52:14;;;;;;;29.05;15.02;;;21.30;99.90;;;;;;4975542;28;20387;-59
2022/08/08 05:54:41;;;;;;;26.63;15.23;;;21.50;99.90;;;;;;4957061;28;20035;-59
2022/08/08 05:57:16;;;;;;;23.50;14.70;;;21.50;99.90;;;;;;4973696;28;20035;-59
2022/08/08 05:59:48;;;;;;;22.25;13.18;;;21.70;99.90;;;;;;4981284;28;20037;-59
2022/08/08 06:05:17;;;;;;;26.27;16.27;;;21.90;99.90;;;;;;4991997;28;20042;-59
2022/08/08 06:07:46;;;;;;;24.50;14.55;;;22.00;99.90;;;;;;4969725;28;20062;-59
2022/08/08 06:10:14;;;;;;;22.88;14.65;;;22.10;99.90;;;;;;4986008;28;20023;-59
2022/08/08 06:12:42;;;;;;;23.92;14.95;;;22.20;99.90;;;;;;4958023;28;20035;-60
2022/08/08 06:15:10;;;;;;;29.85;15.38;;;22.40;99.90;;;;;;4965697;28;20178;-60
2022/08/08 06:17:41;;;;;;;29.35;15.23;;;22.60;99.90;;;;;;4963559;28;20038;-59
2022/08/08 06:20:10;;;;;;;28.42;15.40;;;22.70;99.90;;;;;;4968151;28;20038;-59
2022/08/08 06:22:36;;;;;;;28.10;14.68;;;22.80;99.90;;;;;;4948639;28;20027;-60
2022/08/08 06:25:09;;;;;;;31.50;16.33;;;23.00;99.90;;;;;;4951373;28;20061;-60
2022/08/08 06:27:43;;;;;;;25.08;14.05;;;23.10;99.90;;;;;;4978762;28;20034;-60
2022/08/08 06:30:11;;;;;;;23.88;12.85;;;23.20;99.90;;;;;;4959551;28;20343;-60
2022/08/08 06:32:46;;;;;;;19.17;10.68;;;23.40;99.90;;;;;;4949564;28;20093;-60
2022/08/08 06:35:14;;;;;;;24.73;13.48;;;23.50;99.90;;;;;;4951366;28;20026;-60
2022/08/08 06:37:57;;;;;;;23.50;13.13;;;23.70;99.90;;;;;;4970115;28;20062;-60
2022/08/08 06:40:30;;;;;;;19.80;12.10;;;23.90;99.90;;;;;;4955143;28;20041;-60
2022/08/08 06:43:08;;;;;;;;;;;24.00;99.90;;;;;;4977252;28;20037;-60
2022/08/08 06:45:46;;;;;;;24.17;13.77;;;24.30;99.70;;;;;;4974543;28;20592;-60
2022/08/08 06:48:13;;;;;;;27.50;13.65;;;24.40;97.50;;;;;;4976000;28;20474;-60
2022/08/08 06:50:40;;;;;;;20.58;12.52;;;24.30;96.90;;;;;;4975674;28;20516;-60
2022/08/08 06:53:10;;;;;;;22.17;13.23;;;24.30;95.60;;;;;;4966300;28;20180;-60
2022/08/08 06:55:39;;;;;;;24.13;12.70;;;24.60;95.10;;;;;;4978833;28;20046;-60
2022/08/08 06:58:05;;;;;;;26.85;13.20;;;25.00;93.80;;;;;;4947964;28;20034;-60
2022/08/08 07:00:37;;;;;;;21.15;11.27;;;24.90;93.30;;;;;;4949572;28;20158;-60
2022/08/08 07:03:08;;;;;;;21.67;11.57;;;25.10;92.50;;;;;;4941770;28;20542;-61
2022/08/08 07:05:37;;;;;;;19.65;10.75;;;25.50;92.60;;;;;;4974100;28;20066;-60
2022/08/08 07:08:11;;;;;;;19.73;10.57;;;25.80;90.20;;;;;;4959852;28;20038;-60
2022/08/08 07:10:44;;;;;;;22.92;12.63;;;26.00;90.30;;;;;;4954310;28;20287;-60
2022/08/08 07:13:16;;;;;;;22.02;12.38;;;26.30;86.40;;;;;;4958304;28;20030;-60
2022/08/08 07:15:50;;;;;;;21.02;11.98;;;26.50;84.80;;;;;;4955535;28;20798;-60
2022/08/08 07:18:37;;;;;;;21.30;11.10;;;26.80;82.00;;;;;;4942951;28;20030;-60
2022/08/08 07:21:06;;;;;;;15.50;10.23;;;27.10;78.40;;;;;;4958437;28;20045;-60
2022/08/08 07:24:06;;;;;;;20.15;9.20;;;27.40;74.70;;;;;;4962931;28;20034;-60
2022/08/08 07:26:46;;;;;;;20.95;11.38;;;27.70;75.50;;;;;;4958763;28;20038;-61
2022/08/08 07:29:13;;;;;;;17.50;10.18;;;28.00;71.90;;;;;;4965055;28;20840;-61
2022/08/08 07:31:42;;;;;;;21.85;10.68;;;28.20;68.90;;;;;;4957221;28;20034;-61
2022/08/08 07:34:10;;;;;;;16.60;10.02;;;28.40;69.60;;;;;;4957939;28;20101;-61
2022/08/08 07:36:39;;;;;;;14.75;8.88;;;28.70;67.80;;;;;;4956241;28;20947;-61
2022/08/08 07:39:07;;;;;;;15.75;9.57;;;29.10;66.60;;;;;;4972313;28;20058;-61
2022/08/08 07:41:39;;;;;;;18.67;9.52;;;29.20;64.90;;;;;;4955326;28;20542;-61
2022/08/08 07:44:07;;;;;;;12.95;9.57;;;29.70;62.10;;;;;;4950934;28;20074;-61
2022/08/08 07:46:33;;;;;;;18.85;9.63;;;29.80;60.80;;;;;;4957616;28;20372;-61
2022/08/08 07:49:05;;;;;;;18.33;10.85;;;29.90;61.00;;;;;;4965848;28;20389;-61
2022/08/08 07:51:33;;;;;;;14.82;9.30;;;30.10;60.50;;;;;;4983877;28;20046;-61
2022/08/08 07:54:41;;;;;;;17.30;10.23;;;30.20;59.10;;;;;;4967357;28;20144;-61
2022/08/08 07:57:31;;;;;;;14.10;9.02;;;30.60;57.10;;;;;;4962096;28;20042;-62
2022/08/08 08:00:08;;;;;;;22.73;9.65;;;30.80;56.80;;;;;;4969199;28;20034;-61
2022/08/08 08:03:03;;;;;;;17.02;10.10;;;31.00;56.60;;;;;;4970918;28;20031;-62
2022/08/08 08:05:31;;;;;;;13.55;8.98;;;31.20;55.20;;;;;;4977944;28;20215;-62
2022/08/08 08:08:19;;;;;;;13.63;8.70;;;31.50;54.40;;;;;;4965854;28;20065;-62
2022/08/08 08:10:50;;;;;;;14.82;8.55;;;31.60;53.10;;;;;;4959390;28;20026;-62
2022/08/08 08:13:34;;;;;;;12.10;7.75;;;31.40;53.50;;;;;;4949275;28;20125;-62
2022/08/08 08:16:07;;;;;;;16.23;8.20;;;31.60;53.60;;;;;;4990500;28;20451;-62
2022/08/08 08:18:46;;;;;;;20.17;7.60;;;31.80;51.80;;;;;;4971651;28;20033;-62
2022/08/08 08:21:14;;;;;;;19.55;7.55;;;32.10;50.00;;;;;;4973105;28;20038;-62
2022/08/08 08:23:40;;;;;;;7.70;5.80;;;32.40;50.60;;;;;;4949869;28;20037;-62
2022/08/08 08:26:07;;;;;;;16.85;7.97;;;32.90;49.10;;;;;;4983319;28;20042;-62
2022/08/08 08:28:34;;;;;;;10.80;7.47;;;33.00;49.00;;;;;;4962975;28;20022;-62
2022/08/08 08:31:04;;;;;;;20.27;8.02;;;32.90;47.30;;;;;;4963140;28;20041;-62
2022/08/08 08:33:33;;;;;;;11.32;7.75;;;32.20;48.20;;;;;;4970950;28;20434;-62
2022/08/08 08:36:01;;;;;;;14.90;7.50;;;32.70;47.90;;;;;;4979331;28;20538;-62
2022/08/08 08:38:30;;;;;;;11.27;6.72;;;33.20;47.60;;;;;;4964595;28;20026;-62
2022/08/08 08:41:02;;;;;;;20.58;10.15;;;32.40;48.50;;;;;;4958595;28;20038;-62
2022/08/08 08:43:30;;;;;;;21.48;8.68;;;32.70;47.60;;;;;;4956915;28;20092;-62
2022/08/08 08:46:00;;;;;;;9.18;7.32;;;32.00;49.80;;;;;;4965495;28;20121;-62
2022/08/08 08:48:26;;;;;;;15.00;8.05;;;32.10;49.70;;;;;;4964005;28;20038;-62
2022/08/08 08:50:54;;;;;;;15.23;8.07;;;32.80;48.10;;;;;;4974154;28;20034;-63
2022/08/08 08:53:22;;;;;;;16.15;7.82;;;33.20;47.80;;;;;;4970754;28;20042;-63
2022/08/08 08:55:50;;;;;;;11.75;6.90;;;33.50;47.70;;;;;;4969922;28;20030;-63
2022/08/08 08:58:43;;;;;;;12.10;6.72;;;33.70;46.50;;;;;;4960283;28;20494;-62
2022/08/08 09:01:19;;;;;;;9.85;6.45;;;34.00;46.50;;;;;;4951073;28;20057;-62
2022/08/08 09:03:49;;;;;;;14.15;7.38;;;34.10;45.70;;;;;;4954322;28;20344;-62
2022/08/08 09:06:38;;;;;;;9.15;6.55;;;34.10;45.20;;;;;;4948931;28;20105;-63
2022/08/08 09:09:15;;;;;;;9.65;7.22;;;34.50;45.60;;;;;;4950008;28;20026;-63
2022/08/08 09:11:46;;;;;;;23.30;8.38;;;34.00;45.10;;;;;;4983600;28;20057;-63
2022/08/08 09:14:13;;;;;;;10.27;6.60;;;34.60;45.80;;;;;;4952034;28;20760;-63
2022/08/08 09:16:40;;;;;;;8.65;5.70;;;34.20;44.40;;;;;;4954794;28;20049;-63
2022/08/08 09:19:06;;;;;;;8.77;6.80;;;34.60;44.40;;;;;;4955070;28;20509;-62
2022/08/08 09:21:33;;;;;;;7.72;6.80;;;34.10;44.50;;;;;;4983301;28;20495;-63
2022/08/08 09:24:01;;;;;;;13.52;7.75;;;34.50;45.20;;;;;;4985608;28;20034;-63
2022/08/08 09:26:42;;;;;;;8.68;5.88;;;33.90;45.50;;;;;;4994393;28;20041;-63
2022/08/08 09:29:18;;;;;;;15.35;5.95;;;34.10;45.60;;;;;;4986200;28;20030;-63
2022/08/08 09:31:56;;;;;;;10.60;7.40;;;33.80;45.80;;;;;;4962566;28;20034;-63
2022/08/08 09:34:26;;;;;;;12.65;6.55;;;33.90;45.00;;;;;;4953694;28;20121;-63
2022/08/08 09:37:03;;;;;;;14.50;7.10;;;34.00;45.20;;;;;;4980688;28;20041;-63
2022/08/08 09:39:45;;;;;;;14.57;7.75;;;33.20;46.60;;;;;;4950933;28;20058;-63
2022/08/08 09:42:15;;;;;;;19.08;7.50;;;32.30;47.90;;;;;;4951234;28;20050;-63
2022/08/08 09:45:09;;;;;;;13.50;6.80;;;33.00;47.70;;;;;;4970962;28;20036;-63
2022/08/08 09:47:39;;;;;;;9.15;7.10;;;33.40;47.90;;;;;;4972412;28;20137;-63
2022/08/08 09:50:11;;;;;;;10.43;6.03;;;33.70;47.80;;;;;;4984970;28;21073;-63
2022/08/08 09:52:41;;;;;;;14.82;7.20;;;34.00;45.30;;;;;;4968840;28;20439;-63
2022/08/08 09:55:08;;;;;;;8.20;6.40;;;31.90;48.40;;;;;;4973756;28;20996;-63
2022/08/08 09:57:39;;;;;;;11.93;6.50;;;32.50;48.30;;;;;;4968209;28;21180;-63
2022/08/08 10:00:08;;;;;;;9.20;6.03;;;32.40;47.40;;;;;;4967727;28;20112;-63
2022/08/08 10:02:48;;;;;;;9.70;6.22;;;32.90;47.70;;;;;;4965763;28;20026;-63
2022/08/08 10:05:15;;;;;;;8.50;5.60;;;33.80;46.90;;;;;;4969722;28;20046;-63
2022/08/08 10:07:51;;;;;;;9.00;5.00;;;34.70;45.50;;;;;;4975629;28;20031;-63
2022/08/08 10:10:31;;;;;;;12.27;5.78;;;34.70;44.10;;;;;;4940832;28;20280;-63
2022/08/08 10:12:59;;;;;;;9.52;5.25;;;34.60;45.10;;;;;;4950815;28;20442;-63
2022/08/08 10:15:35;;;;;;;17.00;8.30;;;35.40;42.20;;;;;;4952298;28;20247;-63
2022/08/08 10:18:01;;;;;;;20.48;7.30;;;35.30;41.40;;;;;;4970390;28;20031;-63
2022/08/08 10:20:28;;;;;;;17.63;6.75;;;35.90;41.20;;;;;;4968001;28;20030;-64
2022/08/08 10:22:59;;;;;;;13.32;4.80;;;35.60;40.40;;;;;;4968006;28;20066;-63
2022/08/08 10:25:25;;;;;;;12.63;5.35;;;35.70;40.20;;;;;;4972215;28;20046;-63
2022/08/08 10:28:05;;;;;;;11.48;4.68;;;35.80;39.00;;;;;;4966824;28;20289;-64
2022/08/08 10:30:33;;;;;;;27.92;7.20;;;35.30;39.00;;;;;;4966567;28;20440;-64
2022/08/08 10:33:00;;;;;;;12.73;4.93;;;35.30;39.20;;;;;;4967900;28;20037;-64
2022/08/08 10:35:29;;;;;;;8.73;4.65;;;34.80;41.10;;;;;;4968682;28;20053;-64
2022/08/08 10:37:58;;;;;;;8.75;5.00;;;36.00;38.90;;;;;;4967298;28;20365;-64
2022/08/08 10:40:35;;;;;;;15.35;5.85;;;36.90;37.60;;;;;;4968413;28;20488;-64
2022/08/08 10:43:05;;;;;;;12.55;4.95;;;37.10;36.90;;;;;;4979431;28;20046;-64
2022/08/08 10:45:50;;;;;;;;;;;37.50;36.20;;;;;;4965390;28;20034;-64
2022/08/08 10:48:16;;;;;;;11.55;5.15;;;37.20;36.80;;;;;;4964070;28;19972;-65
2022/08/08 10:50:42;;;;;;;8.48;5.03;;;37.70;36.80;;;;;;4967947;28;20157;-64
2022/08/08 10:53:10;;;;;;;9.45;4.47;;;38.00;36.30;;;;;;4969030;28;20471;-64
2022/08/08 10:55:38;;;;;;;9.63;4.75;;;37.80;34.80;;;;;;4971425;28;20480;-64
2022/08/08 10:58:09;;;;;;;13.73;6.57;;;36.30;36.00;;;;;;4970572;28;20069;-64
2022/08/08 11:00:42;;;;;;;14.35;4.80;;;35.20;37.60;;;;;;4970207;28;20042;-65
2022/08/08 11:03:16;;;;;;;11.10;4.75;;;35.60;38.60;;;;;;4965560;28;20495;-64
2022/08/08 11:05:50;;;;;;;9.75;4.60;;;35.70;37.60;;;;;;4948282;28;20092;-65
2022/08/08 11:08:25;;;;;;;12.88;4.82;;;35.60;38.40;;;;;;4967198;28;20487;-65
2022/08/08 11:11:05;;;;;;;11.95;4.55;;;35.30;38.20;;;;;;4972831;28;20037;-65
2022/08/08 11:13:41;;;;;;;;;;;35.00;39.30;;;;;;4973429;28;20319;-65
2022/08/08 11:16:11;;;;;;;6.50;4.47;;;34.70;39.60;;;;;;4968405;28;19995;-65
2022/08/08 11:18:38;;;;;;;10.63;5.07;;;34.80;39.20;;;;;;4968256;28;20030;-65
2022/08/08 11:21:09;;;;;;;15.18;5.65;;;34.60;40.20;;;;;;4973730;28;20140;-65
2022/08/08 11:23:40;;;;;;;11.55;4.93;;;34.30;41.40;;;;;;4968935;28;20121;-65
2022/08/08 11:26:16;;;;;;;7.47;4.40;;;34.60;40.00;;;;;;4950543;28;20133;-65
2022/08/08 11:28:44;;;;;;;6.75;4.78;;;34.70;40.90;;;;;;4973087;28;20460;-64
2022/08/08 11:31:18;;;;;;;10.18;4.80;;;35.20;39.90;;;;;;4965381;28;20352;-65
2022/08/08 11:33:56;;;;;;;11.75;5.00;;;35.20;39.80;;;;;;4948081;28;20441;-65
2022/08/08 11:36:22;;;;;;;12.70;5.40;;;35.60;39.00;;;;;;4950952;28;20046;-65
2022/08/08 11:38:48;;;;;;;11.43;4.80;;;35.50;38.60;;;;;;4975673;28;20036;-65
2022/08/08 11:41:16;;;;;;;6.15;4.53;;;35.90;37.70;;;;;;4976059;28;20415;-65
2022/08/08 11:43:44;;;;;;;16.48;5.95;;;34.40;38.80;;;;;;4964662;28;20041;-65
2022/08/08 11:46:11;;;;;;;7.82;3.90;;;35.30;38.50;;;;;;4972114;28;20111;-65
2022/08/08 11:48:41;;;;;;;7.25;4.28;;;35.80;39.20;;;;;;4966352;28;20092;-65
2022/08/08 11:51:09;;;;;;;10.05;4.35;;;36.50;37.00;;;;;;4968390;28;20920;-65
2022/08/08 11:53:36;;;;;;;6.97;4.07;;;36.20;36.80;;;;;;4981114;28;20022;-65
2022/08/08 11:56:02;;;;;;;19.05;5.28;;;36.60;36.80;;;;;;4976778;28;20484;-65
2022/08/08 11:58:33;;;;;;;9.25;4.10;;;36.20;36.30;;;;;;4972524;28;20022;-65
2022/08/08 12:01:03;;;;;;;9.70;4.60;;;36.10;37.00;;;;;;4965838;28;20036;-65
2022/08/08 12:03:35;;;;;;;11.02;3.75;;;36.10;37.20;;;;;;4964734;28;20108;-65
2022/08/08 12:06:14;;;;;;;6.95;4.45;;;35.50;37.50;;;;;;4967084;28;20049;-65
2022/08/08 12:08:41;;;;;;;29.88;4.63;;;35.60;37.70;;;;;;4971318;28;20449;-65
2022/08/08 12:11:13;;;;;;;8.10;3.72;;;35.40;37.80;;;;;;4975534;28;20030;-65
2022/08/08 12:13:40;;;;;;;10.02;4.00;;;35.10;38.00;;;;;;4978603;28;20029;-65
2022/08/08 12:16:18;;;;;;;12.30;4.60;;;34.50;38.80;;;;;;4970984;28;20393;-65
2022/08/08 12:18:51;;;;;;;8.10;4.25;;;34.30;39.30;;;;;;4968005;28;20122;-65
2022/08/08 12:21:30;;;;;;;4.50;3.88;;;34.20;39.90;;;;;;4972768;28;20140;-65
2022/08/08 12:24:06;;;;;;;7.80;4.63;;;34.10;40.20;;;;;;4970106;28;20034;-65
2022/08/08 12:26:41;;;;;;;9.15;4.30;;;33.90;40.50;;;;;;4967773;28;20588;-65
2022/08/08 12:29:18;;;;;;;10.77;4.18;;;33.70;40.90;;;;;;4970995;28;20538;-65
2022/08/08 12:31:45;;;;;;;9.85;4.97;;;33.40;41.10;;;;;;4967321;28;20076;-65
2022/08/08 12:34:11;;;;;;;16.55;4.47;;;33.30;41.40;;;;;;4969226;28;20639;-65
2022/08/08 12:36:39;;;;;;;6.30;4.68;;;33.10;41.70;;;;;;4972497;28;20149;-64
2022/08/08 12:39:05;;;;;;;8.80;4.43;;;32.80;41.30;;;;;;4971404;28;20093;-65
2022/08/08 12:41:35;;;;;;;7.60;4.20;;;32.60;42.50;;;;;;4971134;28;20533;-65
2022/08/08 12:44:09;;;;;;;13.52;4.50;;;32.50;43.20;;;;;;4970653;28;20066;-65
2022/08/08 12:46:35;;;;;;;4.75;4.30;;;32.50;43.50;;;;;;4972269;28;20027;-65
2022/08/08 12:49:04;;;;;;;7.30;3.90;;;32.40;43.10;;;;;;4971592;28;20036;-65
2022/08/08 12:51:41;;;;;;;8.90;4.22;;;32.30;43.60;;;;;;4972511;28;20030;-65
2022/08/08 12:54:08;;;;;;;17.17;5.28;;;32.10;44.40;;;;;;4972974;28;20968;-65
2022/08/08 12:56:39;;;;;;;8.15;4.63;;;32.10;43.80;;;;;;4972619;28;20049;-65
2022/08/08 12:59:21;;;;;;;11.23;5.28;;;31.80;44.70;;;;;;4974094;28;20076;-65
2022/08/08 13:01:56;;;;;;;14.80;4.82;;;31.70;44.50;;;;;;4970744;28;20034;-65
2022/08/08 13:04:25;;;;;;;16.15;5.30;;;31.70;44.90;;;;;;4971938;28;20078;-64
2022/08/08 13:07:01;;;;;;;13.77;5.10;;;31.60;45.20;;;;;;4963437;28;20061;-64
2022/08/08 13:09:53;;;;;;;6.32;4.93;;;31.60;45.20;;;;;;4965064;28;20264;-65
2022/08/08 13:12:24;;;;;;;7.72;4.60;;;31.50;45.60;;;;;;4957230;28;20046;-64
2022/08/08 13:14:51;;;;;;;9.75;5.28;;;31.40;45.60;;;;;;4968694;28;20022;-64